Terminal Aerodrome Forecast
Issued by NWS Twin Cities, MN

Home | Current Version | Previous Version | Text Only | Print | Product List | Glossary On
Versions: 1 2 3 4 5 6 7 8 9 10 11 12 13 14
492
FTUS43 KMPX 201120
TAFEAU
TAF
KEAU 201120Z 2012/2112 07010KT P6SM BKN100
     FM201600 08012KT 6SM -RA BR SCT020 OVC040
     FM201900 08012G19KT 4SM RA BR SCT010 OVC020
     FM202200 09012G19KT 3SM RA BR OVC007
     FM210200 10008KT 2SM -DZ BR OVC007
     FM211000 18005KT 4SM -RA BR OVC007=

USA.gov is the U.S. government's official web portal to all federal, state and local government web resources and services.